Nakina, Canada
Current Conditions -  °F | °C
As of 2:00 AM on Sunday 26 Oct 2014 (Local Time) from CYGQ Reporting Station
Overcast Overcast  
Wind Chill: 31°   Ceiling: 3800
Heat Index: 39°   Visibility: 10mi
Dew Point: 32°   Wind: 14mph
Humidity: 75%   Direction: 300°WNW
Pressure: 29.75"   Gusts: 20mph
Location:  50.18°N, 86.7°W
Report Text: CYGQ 260600Z 30012G17KT 10SM OVC038 04/M00 A2975 RMK SC8SLP088
Loading
Personal Weather Stations






























Interactive Weather Map
Tropical Storm Tracking
New forecast layout! Learn more

10-Day Weather Forecast

Advertisements
Track Severe Weather on mobile